Time;durP1;ratioP1;P1;durP2;ratioP2;P2;SDS_P1;SDS_P2;PMS_P1;PMS_P2;Temp;Humidity;BMP_temperature;BMP_pressure;BME280_temperature;BME280_humidity;BME280_pressure;Samples;Min_cycle;Max_cycle;Signal;HPM_P1;HPM_P2
2023/05/20 00:02:08;;;;;;;;;;;13.90;1.00;;;;;;5094905;28;20333;-81
2023/05/20 00:10:40;;;;;;;;;;;13.80;1.00;;;;;;5106569;28;19976;-74
2023/05/20 00:13:05;;;;;;;;;;;13.80;1.00;;;;;;5097691;28;19947;-73
2023/05/20 00:15:31;;;;;;;;;;;13.80;1.00;;;;;;5094824;28;20354;-73
2023/05/20 00:17:59;;;;;;;;;;;13.80;1.00;;;;;;5094931;28;20330;-73
2023/05/20 00:20:24;;;;;;;;;;;13.80;1.00;;;;;;5094585;28;19925;-73
2023/05/20 00:22:51;;;;;;;;;;;13.90;1.00;;;;;;5113421;28;19908;-73
2023/05/20 00:25:33;;;;;;;;;;;13.80;1.00;;;;;;5115216;28;19926;-73
2023/05/20 00:27:59;;;;;;;;;;;13.80;1.00;;;;;;5099083;28;19988;-73
2023/05/20 00:30:27;;;;;;;;;;;13.80;1.00;;;;;;5094693;28;19947;-73
2023/05/20 00:32:53;;;;;;;;;;;13.80;1.00;;;;;;5094328;28;20316;-73
2023/05/20 00:35:18;;;;;;;;;;;13.80;1.00;;;;;;5094025;28;19905;-73
2023/05/20 00:37:44;;;;;;;;;;;13.80;1.00;;;;;;5111603;28;19965;-73
2023/05/20 00:40:27;;;;;;;;;;;13.80;1.00;;;;;;5114086;28;19910;-81
2023/05/20 00:45:56;;;;;;;;;;;13.70;1.00;;;;;;5094462;28;20313;-81
2023/05/20 00:51:24;;;;;;;;;;;13.70;1.00;;;;;;5113713;28;19981;-81
2023/05/20 01:02:59;;;;;;;;;;;13.40;1.00;;;;;;5093743;28;20003;-81
2023/05/20 01:08:27;;;;;;;;;;;13.30;1.00;;;;;;5108046;28;20348;-81
2023/05/20 01:10:57;;;;;;;;;;;13.30;1.00;;;;;;5114591;28;19904;-73
2023/05/20 01:13:26;;;;;;;;;;;13.20;1.00;;;;;;5114693;28;19994;-73
2023/05/20 01:15:52;;;;;;;;;;;13.20;1.00;;;;;;5114650;28;19956;-74
2023/05/20 01:18:19;;;;;;;;;;;13.20;1.00;;;;;;5110806;28;19919;-73
2023/05/20 01:20:49;;;;;;;;;;;13.10;1.00;;;;;;5096301;28;19908;-73
2023/05/20 01:23:15;;;;;;;;;;;13.10;1.00;;;;;;5094136;28;19916;-73
2023/05/20 01:25:45;;;;;;;;;;;13.10;1.00;;;;;;5094361;28;19998;-74
2023/05/20 01:28:16;;;;;;;;;;;13.00;1.00;;;;;;5093971;28;19958;-73
2023/05/20 01:30:46;;;;;;;;;;;13.00;1.00;;;;;;5094052;28;19904;-73
2023/05/20 01:33:16;;;;;;;;;;;13.00;1.00;;;;;;5110362;28;20354;-73
2023/05/20 01:35:42;;;;;;;;;;;13.00;1.00;;;;;;5114470;28;19904;-73
2023/05/20 01:38:08;;;;;;;;;;;12.90;1.00;;;;;;5111499;28;20292;-73
2023/05/20 01:43:38;;;;;;;;;;;13.00;1.00;;;;;;5113287;28;19915;-81
2023/05/20 01:46:33;;;;;;;;;;;12.90;1.00;;;;;;5102766;28;19961;-81
2023/05/20 01:52:02;;;;;;;;;;;12.80;1.00;;;;;;5095042;28;19958;-81
2023/05/20 01:54:39;;;;;;;;;;;12.80;1.00;;;;;;5117261;28;20355;-81
2023/05/20 01:57:09;;;;;;;;;;;12.70;1.00;;;;;;5100717;28;20393;-74
2023/05/20 01:59:35;;;;;;;;;;;12.70;1.00;;;;;;5097551;28;20537;-73
2023/05/20 02:02:00;;;;;;;;;;;12.60;1.00;;;;;;5097180;28;19994;-73
2023/05/20 02:04:26;;;;;;;;;;;12.70;1.00;;;;;;5097308;28;19904;-74
2023/05/20 02:06:52;;;;;;;;;;;12.60;1.00;;;;;;5097124;28;19910;-74
2023/05/20 02:09:27;;;;;;;;;;;12.60;1.00;;;;;;5107464;28;20287;-73
2023/05/20 02:14:56;;;;;;;;;;;12.70;1.00;;;;;;5096788;28;19919;-81
2023/05/20 02:20:24;;;;;;;;;;;12.60;1.00;;;;;;5096954;28;19911;-81
2023/05/20 02:25:53;;;;;;;;;;;12.60;1.00;;;;;;5096938;28;19910;-75
2023/05/20 02:31:21;;;;;;;;;;;12.70;1.00;;;;;;5096069;28;20439;-82
2023/05/20 02:36:50;;;;;;;;;;;12.70;1.00;;;;;;5096687;28;20373;-82
2023/05/20 02:42:19;;;;;;;;;;;12.80;1.00;;;;;;5096892;28;19922;-82
2023/05/20 02:44:45;;;;;;;;;;;13.00;1.00;;;;;;5096492;28;19904;-82
2023/05/20 02:50:13;;;;;;;;;;;13.00;1.00;;;;;;5096198;28;19919;-82
2023/05/20 02:53:10;;;;;;;;;;;13.10;1.00;;;;;;5097554;28;19916;-82
2023/05/20 02:55:39;;;;;;;;;;;13.20;1.00;;;;;;5111098;28;19907;-85
2023/05/20 02:58:05;;;;;;;;;;;13.30;1.00;;;;;;5097000;28;20358;-75
2023/05/20 03:00:31;;;;;;;;;;;13.30;1.00;;;;;;5095994;28;19907;-74
2023/05/20 03:03:00;;;;;;;;;;;13.40;1.00;;;;;;5113626;27;19904;-74
2023/05/20 03:05:27;;;;;;;;;;;13.40;1.00;;;;;;5115524;28;20037;-74
2023/05/20 03:07:53;;;;;;;;;;;13.50;1.00;;;;;;5111049;28;19908;-74
2023/05/20 03:10:21;;;;;;;;;;;13.50;1.00;;;;;;5111388;28;19914;-74
2023/05/20 03:16:21;;;;;;;;;;;13.60;1.00;;;;;;5099086;28;20320;-82
2023/05/20 03:22:09;;;;;;;;;;;13.60;1.00;;;;;;5113347;28;19995;-83
2023/05/20 03:30:41;;;;;;;;;;;13.30;1.00;;;;;;5104588;28;19958;-85
2023/05/20 03:33:27;;;;;;;;;;;13.20;1.00;;;;;;5077679;28;19912;-85
2023/05/20 03:39:00;;;;;;;;;;;13.10;1.00;;;;;;5103928;28;19953;-85
2023/05/20 03:44:29;;;;;;;;;;;13.10;1.00;;;;;;5095982;28;20030;-85
2023/05/20 03:49:57;;;;;;;;;;;13.00;1.00;;;;;;5095757;28;20398;-85
2023/05/20 03:52:23;;;;;;;;;;;12.90;1.00;;;;;;5095738;28;19916;-85
2023/05/20 03:55:15;;;;;;;;;;;12.90;1.00;;;;;;5079168;28;22188;-85
2023/05/20 04:03:47;;;;;;;;;;;12.90;1.00;;;;;;5095262;28;19999;-85
2023/05/20 04:06:13;;;;;;;;;;;13.00;1.00;;;;;;5076938;28;19935;-85
2023/05/20 04:08:45;;;;;;;;;;;13.00;1.00;;;;;;5095081;28;20011;-84
2023/05/20 04:14:14;;;;;;;;;;;13.10;1.00;;;;;;5104053;28;19948;-83
2023/05/20 04:28:52;;;;;;;;;;;13.50;1.00;;;;;;5104160;28;19915;-83
2023/05/20 04:31:39;;;;;;;;;;;13.60;1.00;;;;;;5078842;28;19908;-83
2023/05/20 04:37:10;;;;;;;;;;;13.80;1.00;;;;;;5111443;28;19915;-83
2023/05/20 04:40:03;;;;;;;;;;;13.90;1.00;;;;;;5095896;28;19915;-83
2023/05/20 04:42:33;;;;;;;;;;;14.00;1.00;;;;;;5094943;28;19908;-84
2023/05/20 04:48:02;;;;;;;;;;;14.20;1.00;;;;;;5096565;28;19930;-85
2023/05/20 04:50:28;;;;;;;;;;;14.40;1.00;;;;;;5076810;28;19916;-85
2023/05/20 04:52:54;;;;;;;;;;;14.50;1.00;;;;;;5076500;28;19916;-85
2023/05/20 04:55:28;;;;;;;;;;;14.50;1.00;;;;;;5076221;28;19908;-85
2023/05/20 04:58:29;;;;;;;;;;;14.60;1.00;;;;;;5076937;28;19905;-83
2023/05/20 05:06:55;;;;;;;;;;;15.10;1.00;;;;;;5094535;28;19915;-85
2023/05/20 05:15:28;;;;;;;;;;;15.60;1.00;;;;;;5100831;28;19923;-85
2023/05/20 05:21:09;;;;;;;;;;;15.90;1.00;;;;;;5094467;28;19915;-86
2023/05/20 05:23:57;;;;;;;;;;;16.00;1.00;;;;;;5077969;28;20375;-85
2023/05/20 05:26:57;;;;;;;;;;;16.20;1.00;;;;;;5095489;28;19916;-85
2023/05/20 05:29:27;;;;;;;;;;;16.30;1.00;;;;;;5079843;28;19916;-83
2023/05/20 05:32:27;;;;;;;;;;;16.50;1.00;;;;;;5080436;28;19915;-83
2023/05/20 05:35:10;;;;;;;;;;;16.60;1.00;;;;;;5097843;28;19914;-83
2023/05/20 05:43:58;;;;;;;;;;;16.70;1.00;;;;;;5108203;28;19918;-83
2023/05/20 05:46:57;;;;;;;;;;;16.70;1.00;;;;;;5084534;28;19911;-84
2023/05/20 05:49:48;;;;;;;;;;;16.60;1.00;;;;;;5092538;28;19908;-84
2023/05/20 05:52:14;;;;;;;;;;;16.60;1.00;;;;;;5084488;28;20370;-84
2023/05/20 05:54:39;;;;;;;;;;;16.50;1.00;;;;;;5114569;28;19958;-84
2023/05/20 06:00:27;;;;;;;;;;;16.50;1.00;;;;;;5103074;28;19934;-84
2023/05/20 06:03:09;;;;;;;;;;;16.50;1.00;;;;;;5105541;28;19903;-84
2023/05/20 06:08:38;;;;;;;;;;;16.60;1.00;;;;;;5117902;28;19971;-84
2023/05/20 06:14:27;;;;;;;;;;;16.80;1.00;;;;;;5097799;28;19935;-85
2023/05/20 06:17:27;;;;;;;;;;;17.00;1.00;;;;;;5083373;28;20007;-85
2023/05/20 06:23:15;;;;;;;;;;;17.30;1.00;;;;;;5101873;28;19915;-85
2023/05/20 06:25:58;;;;;;;;;;;17.50;1.00;;;;;;5079438;28;19904;-85
2023/05/20 06:28:28;;;;;;;;;;;17.50;1.00;;;;;;5079327;28;20274;-84
2023/05/20 06:30:57;;;;;;;;;;;17.60;1.00;;;;;;5094941;28;19904;-85
2023/05/20 06:33:57;;;;;;;;;;;17.60;1.00;;;;;;5079543;28;20002;-85
2023/05/20 06:36:57;;;;;;;;;;;17.70;1.00;;;;;;5097014;28;20002;-85
2023/05/20 06:39:46;;;;;;;;;;;17.80;1.00;;;;;;5078981;28;19904;-85
2023/05/20 06:42:21;;;;;;;;;;;17.90;1.00;;;;;;5083466;28;20257;-84
2023/05/20 06:44:57;;;;;;;;;;;17.90;1.00;;;;;;5096853;28;19908;-83
2023/05/20 06:50:27;;;;;;;;;;;18.10;1.00;;;;;;5104904;28;20406;-84
2023/05/20 06:52:57;;;;;;;;;;;18.20;1.00;;;;;;5078101;28;19912;-83
2023/05/20 06:55:57;;;;;;;;;;;18.20;1.00;;;;;;5078497;28;20367;-86
2023/05/20 06:58:27;;;;;;;;;;;18.10;1.00;;;;;;5078460;28;20416;-85
2023/05/20 07:00:57;;;;;;;;;;;18.30;1.00;;;;;;5078738;28;19904;-88
2023/05/20 07:03:57;;;;;;;;;;;18.40;1.00;;;;;;5082922;28;19908;-85
2023/05/20 07:12:57;;;;;;;;;;;18.20;1.00;;;;;;5096232;28;19997;-85
2023/05/20 07:15:57;;;;;;;;;;;18.10;1.00;;;;;;5078879;28;19908;-86
2023/05/20 07:21:26;;;;;;;;;;;18.20;1.00;;;;;;5096050;28;19911;-85
2023/05/20 07:23:51;;;;;;;;;;;18.20;1.00;;;;;;5078242;28;19904;-86
2023/05/20 07:26:29;;;;;;;;;;;18.20;1.00;;;;;;5094262;28;19907;-86
2023/05/20 07:28:55;;;;;;;;;;;18.10;1.00;;;;;;5078292;28;19904;-86
2023/05/20 07:31:27;;;;;;;;;;;18.20;1.00;;;;;;5078625;28;19998;-86
2023/05/20 07:33:57;;;;;;;;;;;18.30;1.00;;;;;;5085348;28;19915;-86
2023/05/20 07:36:57;;;;;;;;;;;18.60;1.00;;;;;;5088234;28;19914;-86
2023/05/20 07:39:57;;;;;;;;;;;18.70;1.00;;;;;;5077871;28;19904;-87
2023/05/20 07:42:57;;;;;;;;;;;18.90;1.00;;;;;;5077848;28;19932;-87
2023/05/20 07:45:27;;;;;;;;;;;19.10;1.00;;;;;;5079144;28;19948;-87
2023/05/20 07:47:57;;;;;;;;;;;19.30;1.00;;;;;;5083277;28;19908;-91
2023/05/20 07:50:23;;;;;;;;;;;19.50;1.00;;;;;;5076836;28;19912;-91
2023/05/20 07:52:57;;;;;;;;;;;19.80;1.00;;;;;;5086787;28;19934;-86
2023/05/20 07:55:57;;;;;;;;;;;19.90;1.00;;;;;;5091086;28;19904;-86
2023/05/20 07:58:57;;;;;;;;;;;20.10;1.00;;;;;;5077873;28;19908;-87
2023/05/20 08:01:27;;;;;;;;;;;20.20;1.00;;;;;;5077952;28;19991;-85
2023/05/20 08:04:22;;;;;;;;;;;20.30;1.00;;;;;;5077518;28;19904;-85
2023/05/20 08:09:57;;;;;;;;;;;20.50;1.00;;;;;;5114327;28;19926;-84
2023/05/20 08:12:27;;;;;;;;;;;20.80;1.00;;;;;;5096078;28;20354;-84
2023/05/20 08:14:57;;;;;;;;;;;21.00;1.00;;;;;;5097730;28;19903;-85
2023/05/20 08:17:27;;;;;;;;;;;21.10;1.00;;;;;;5096789;28;19904;-86
2023/05/20 08:20:04;;;;;;;;;;;21.20;1.00;;;;;;5081874;28;19908;-75
2023/05/20 08:22:57;;;;;;;;;;;21.20;1.00;;;;;;5105251;28;20428;-75
2023/05/20 08:25:28;;;;;;;;;;;21.10;1.00;;;;;;5114896;28;19968;-75
2023/05/20 08:28:27;;;;;;;;;;;21.20;1.00;;;;;;5114873;28;19904;-75
2023/05/20 08:30:53;;;;;;;;;;;21.30;1.00;;;;;;5115563;28;19904;-75
2023/05/20 08:33:51;;;;;;;;;;;21.40;1.00;;;;;;5110848;28;20007;-74
2023/05/20 08:36:27;;;;;;;;;;;21.40;1.00;;;;;;5094365;28;19904;-75
2023/05/20 08:38:54;;;;;;;;;;;21.50;1.00;;;;;;5094147;28;19990;-75
2023/05/20 08:44:28;;;;;;;;;;;21.40;1.00;;;;;;5094909;28;19915;-76
2023/05/20 08:46:53;;;;;;;;;;;21.20;1.00;;;;;;5097404;28;20401;-72
2023/05/20 08:49:19;;;;;;;;;;;21.00;1.00;;;;;;5094183;28;19904;-72
2023/05/20 08:51:46;;;;;;;;;;;20.80;1.00;;;;;;5103175;28;19918;-70
2023/05/20 08:54:12;;;;;;;;;;;20.80;1.00;;;;;;5108712;28;19911;-73
2023/05/20 08:56:38;;;;;;;;;;;20.90;1.00;;;;;;5096311;28;19911;-71
2023/05/20 08:59:04;;;;;;;;;;;21.20;1.00;;;;;;5114526;28;19904;-72
2023/05/20 09:01:42;;;;;;;;;;;21.60;1.00;;;;;;5116115;28;19926;-75
2023/05/20 09:04:27;;;;;;;;;;;22.00;1.00;;;;;;5118523;28;19910;-75
2023/05/20 09:06:57;;;;;;;;;;;22.40;1.00;;;;;;5108552;28;20418;-75
2023/05/20 09:09:28;;;;;;;;;;;22.40;1.00;;;;;;5098055;28;20256;-75
2023/05/20 09:11:58;;;;;;;;;;;22.60;1.00;;;;;;5098281;28;20259;-75
2023/05/20 09:14:57;;;;;;;;;;;22.70;1.00;;;;;;5097863;28;19904;-75
2023/05/20 09:17:23;;;;;;;;;;;22.60;1.00;;;;;;5110650;28;19911;-72
2023/05/20 09:19:49;;;;;;;;;;;22.80;1.00;;;;;;5118384;28;19990;-71
2023/05/20 09:22:21;;;;;;;;;;;22.80;1.00;;;;;;5118372;28;19911;-71
2023/05/20 09:24:47;;;;;;;;;;;22.80;1.00;;;;;;5115962;28;20235;-71
2023/05/20 09:27:12;;;;;;;;;;;22.90;1.00;;;;;;5107891;28;19907;-71
2023/05/20 09:29:38;;;;;;;;;;;22.80;1.00;;;;;;5118206;28;19908;-71
2023/05/20 09:32:04;;;;;;;;;;;22.80;1.00;;;;;;5118358;28;20275;-71
2023/05/20 09:34:29;;;;;;;;;;;22.90;1.00;;;;;;5106205;28;19903;-72
2023/05/20 09:36:58;;;;;;;;;;;22.80;1.00;;;;;;5103928;28;19908;-71
2023/05/20 09:39:24;;;;;;;;;;;23.00;1.00;;;;;;5117979;28;19949;-72
2023/05/20 09:42:10;;;;;;;;;;;23.20;1.00;;;;;;5116160;28;19904;-71
2023/05/20 09:44:36;;;;;;;;;;;23.40;1.00;;;;;;5097322;28;19911;-72
2023/05/20 09:47:27;;;;;;;;;;;23.60;1.00;;;;;;5105324;28;19908;-75
2023/05/20 09:49:53;;;;;;;;;;;23.80;1.00;;;;;;5117471;28;19904;-75
2023/05/20 09:52:28;;;;;;;;;;;23.60;1.00;;;;;;5117572;28;19923;-75
2023/05/20 09:54:57;;;;;;;;;;;23.40;1.00;;;;;;5101095;28;20297;-75
2023/05/20 09:57:29;;;;;;;;;;;23.40;1.00;;;;;;5107237;28;19994;-75
2023/05/20 09:59:55;;;;;;;;;;;23.80;1.00;;;;;;5117542;28;19908;-76
2023/05/20 10:02:21;;;;;;;;;;;24.00;1.00;;;;;;5118029;28;19999;-71
2023/05/20 10:04:48;;;;;;;;;;;24.20;1.00;;;;;;5117567;28;19911;-71
2023/05/20 10:07:17;;;;;;;;;;;24.20;1.00;;;;;;5116246;28;20249;-72
2023/05/20 10:09:52;;;;;;;;;;;24.10;1.00;;;;;;5117305;28;20366;-71
2023/05/20 10:12:20;;;;;;;;;;;24.00;1.00;;;;;;5098401;28;19908;-71
2023/05/20 10:14:53;;;;;;;;;;;24.10;1.00;;;;;;5117197;28;20266;-72
2023/05/20 10:20:21;;;;;;;;;;;24.30;1.00;;;;;;5107776;28;19957;-75
2023/05/20 10:28:53;;;;;;;;;;;24.00;1.00;;;;;;5115688;28;20383;-76
2023/05/20 10:31:22;;;;;;;;;;;23.70;1.00;;;;;;5117059;28;19965;-71
2023/05/20 10:40:12;;;;;;;;;;;22.90;1.00;;;;;;5117332;28;19921;-84
2023/05/20 10:43:00;;;;;;;;;;;22.80;1.00;;;;;;5099176;28;19903;-85
2023/05/20 10:45:45;;;;;;;;;;;22.80;1.00;;;;;;5098949;28;20241;-84
2023/05/20 10:48:28;;;;;;;;;;;22.80;1.00;;;;;;5097203;28;19956;-85
2023/05/20 10:50:58;;;;;;;;;;;22.80;1.00;;;;;;5098734;28;20007;-85
2023/05/20 10:53:27;;;;;;;;;;;22.80;1.00;;;;;;5088475;28;19916;-85
2023/05/20 10:58:55;;;;;;;;;;;22.90;1.00;;;;;;5107190;28;19942;-85
2023/05/20 11:07:37;;;;;;;;;;;22.60;1.00;;;;;;5097496;28;19911;-91
2023/05/20 11:19:15;;;;;;;;;;;22.90;1.00;;;;;;5096331;28;19953;-91
2023/05/20 11:24:43;;;;;;;;;;;23.30;1.00;;;;;;5095695;28;20453;-91
2023/05/20 11:30:15;;;;;;;;;;;23.60;1.00;;;;;;5096192;28;19930;-91
2023/05/20 11:35:44;;;;;;;;;;;24.00;1.00;;;;;;5095814;28;19911;-85
2023/05/20 11:38:14;;;;;;;;;;;24.20;1.00;;;;;;5102544;28;19911;-85
2023/05/20 11:43:42;;;;;;;;;;;24.20;1.00;;;;;;5116050;28;19911;-85
2023/05/20 11:49:12;;;;;;;;;;;24.40;1.00;;;;;;5116060;28;20435;-90
2023/05/20 11:54:40;;;;;;;;;;;24.50;1.00;;;;;;5095885;28;20367;-91
2023/05/20 12:00:09;;;;;;;;;;;25.00;1.00;;;;;;5095904;28;20321;-92
2023/05/20 12:02:36;;;;;;;;;;;24.90;1.00;;;;;;5085018;28;20023;-91
2023/05/20 12:08:05;;;;;;;;;;;25.20;1.00;;;;;;5095750;28;19953;-91
2023/05/20 12:10:58;;;;;;;;;;;25.00;1.00;;;;;;5078763;28;19947;-89
2023/05/20 12:13:58;;;;;;;;;;;25.00;1.00;;;;;;5096886;28;20370;-89
2023/05/20 12:16:29;;;;;;;;;;;24.90;1.00;;;;;;5086459;28;20394;-87
2023/05/20 12:19:28;;;;;;;;;;;24.90;1.00;;;;;;5077579;28;19904;-88
2023/05/20 12:24:58;;;;;;;;;;;24.90;1.00;;;;;;5094875;28;19957;-88
2023/05/20 12:27:58;;;;;;;;;;;24.90;1.00;;;;;;5095153;28;19999;-87
2023/05/20 12:30:58;;;;;;;;;;;24.80;1.00;;;;;;5077242;28;19904;-88
2023/05/20 12:33:40;;;;;;;;;;;24.80;1.00;;;;;;5085597;28;19951;-88
2023/05/20 12:39:09;;;;;;;;;;;24.70;1.00;;;;;;5104733;28;20291;-87
2023/05/20 12:41:58;;;;;;;;;;;24.70;1.00;;;;;;5079845;28;19908;-87
2023/05/20 12:44:58;;;;;;;;;;;24.70;1.00;;;;;;5077038;28;20351;-86
2023/05/20 12:47:28;;;;;;;;;;;24.70;1.00;;;;;;5077171;28;19904;-87
2023/05/20 12:49:53;;;;;;;;;;;24.80;1.00;;;;;;5076692;28;19911;-87
2023/05/20 12:52:19;;;;;;;;;;;24.80;1.00;;;;;;5076483;28;19916;-88
2023/05/20 12:54:58;;;;;;;;;;;24.90;1.00;;;;;;5084307;28;19904;-88
2023/05/20 12:57:58;;;;;;;;;;;25.10;1.00;;;;;;5076808;28;19914;-87
2023/05/20 13:00:58;;;;;;;;;;;25.20;1.00;;;;;;5094615;28;19915;-88
2023/05/20 13:03:28;;;;;;;;;;;25.00;1.00;;;;;;5077156;28;19903;-87
2023/05/20 13:05:58;;;;;;;;;;;24.80;1.00;;;;;;5076603;28;19953;-88
2023/05/20 13:08:28;;;;;;;;;;;24.80;1.00;;;;;;5081789;28;19904;-87
2023/05/20 13:10:58;;;;;;;;;;;24.70;1.00;;;;;;5096986;28;20408;-88
2023/05/20 13:13:28;;;;;;;;;;;24.80;1.00;;;;;;5096843;28;19947;-88
2023/05/20 13:16:28;;;;;;;;;;;24.90;1.00;;;;;;5096707;28;19904;-87
2023/05/20 13:18:58;;;;;;;;;;;24.80;1.00;;;;;;5093869;28;19927;-86
2023/05/20 13:21:28;;;;;;;;;;;24.90;1.00;;;;;;5076754;28;19904;-86
2023/05/20 13:23:58;;;;;;;;;;;25.00;1.00;;;;;;5084808;28;19925;-87
2023/05/20 13:26:28;;;;;;;;;;;25.20;1.00;;;;;;5096708;28;19914;-87
2023/05/20 13:29:28;;;;;;;;;;;25.60;1.00;;;;;;5096687;28;19904;-87
2023/05/20 13:31:53;;;;;;;;;;;25.80;1.00;;;;;;5096283;28;20007;-86
2023/05/20 13:37:22;;;;;;;;;;;25.30;1.00;;;;;;5114643;28;20282;-87
2023/05/20 13:39:58;;;;;;;;;;;24.90;1.00;;;;;;5096569;28;19908;-88
2023/05/20 13:42:58;;;;;;;;;;;24.80;1.00;;;;;;5092994;28;19915;-87
2023/05/20 13:45:58;;;;;;;;;;;24.80;1.00;;;;;;5076427;28;19911;-87
2023/05/20 13:51:26;;;;;;;;;;;24.60;1.00;;;;;;5097506;28;19919;-87
2023/05/20 13:53:58;;;;;;;;;;;24.60;1.00;;;;;;5079753;28;19912;-87
2023/05/20 13:56:34;;;;;;;;;;;24.60;1.00;;;;;;5106830;28;19910;-87
2023/05/20 13:59:04;;;;;;;;;;;24.90;1.00;;;;;;5079877;28;19991;-87
2023/05/20 14:01:52;;;;;;;;;;;24.80;1.00;;;;;;5099459;28;20310;-87
2023/05/20 14:04:29;;;;;;;;;;;24.70;1.00;;;;;;5100286;28;19907;-87
2023/05/20 14:07:28;;;;;;;;;;;24.70;1.00;;;;;;5100000;28;19918;-89
2023/05/20 14:09:58;;;;;;;;;;;24.80;1.00;;;;;;5079627;28;19904;-88
2023/05/20 14:12:59;;;;;;;;;;;24.80;1.00;;;;;;5079531;28;20006;-88
2023/05/20 14:15:29;;;;;;;;;;;24.90;1.00;;;;;;5079536;28;19926;-86
2023/05/20 14:18:28;;;;;;;;;;;25.10;1.00;;;;;;5079457;28;19908;-89
2023/05/20 14:21:27;;;;;;;;;;;24.90;1.00;;;;;;5087562;28;19991;-89
2023/05/20 14:24:00;;;;;;;;;;;24.80;1.00;;;;;;5079938;28;19914;-88
2023/05/20 14:26:28;;;;;;;;;;;24.80;1.00;;;;;;5080179;28;19915;-87
2023/05/20 14:29:04;;;;;;;;;;;24.90;1.00;;;;;;5079288;28;19930;-87
2023/05/20 14:32:00;;;;;;;;;;;25.00;1.00;;;;;;5116459;28;19914;-87
2023/05/20 14:34:28;;;;;;;;;;;25.20;1.00;;;;;;5087665;28;19907;-86
2023/05/20 14:36:58;;;;;;;;;;;25.40;1.00;;;;;;5097252;28;19953;-85
2023/05/20 14:48:32;;;;;;;;;;;25.80;1.00;;;;;;5097332;28;19986;-87
2023/05/20 15:09:29;;;;;;;;;;;26.70;1.00;;;;;;5096422;28;19919;-91
2023/05/20 15:21:16;;;;;;;;;;;29.20;1.00;;;;;;5110107;28;19912;-89
2023/05/20 15:24:04;;;;;;;;;;;30.10;1.00;;;;;;5085532;28;19911;-87
2023/05/20 15:29:32;;;;;;;;;;;31.10;1.00;;;;;;5115382;28;19931;-88
2023/05/20 15:38:04;;;;;;;;;;;34.70;1.00;;;;;;5095997;28;19915;-90
2023/05/20 15:43:32;;;;;;;;;;;36.30;1.00;;;;;;5095824;28;19961;-88
2023/05/20 15:49:01;;;;;;;;;;;36.20;1.00;;;;;;5095899;28;19911;-87
2023/05/20 15:58:04;;;;;;;;;;;34.70;1.00;;;;;;5103385;28;19930;-87
2023/05/20 16:07:04;;;;;;;;;;;34.00;1.00;;;;;;5094890;28;19915;-86
2023/05/20 16:12:32;;;;;;;;;;;32.70;1.00;;;;;;5094625;28;19923;-87
2023/05/20 16:18:34;;;;;;;;;;;31.50;1.00;;;;;;5095038;28;19911;-87
2023/05/20 16:24:40;;;;;;;;;;;31.30;1.00;;;;;;5109773;28;20377;-91
2023/05/20 16:30:46;;;;;;;;;;;31.20;1.00;;;;;;5095113;28;19949;-91
2023/05/20 16:39:46;;;;;;;;;;;30.30;1.00;;;;;;5115043;28;19911;-88
2023/05/20 16:42:28;;;;;;;;;;;29.80;1.00;;;;;;5083087;28;19947;-87
2023/05/20 16:45:28;;;;;;;;;;;29.40;1.00;;;;;;5089696;28;19912;-87
2023/05/20 16:47:55;;;;;;;;;;;28.90;1.00;;;;;;5090556;28;20321;-86
2023/05/20 16:50:20;;;;;;;;;;;28.40;1.00;;;;;;5079120;28;19915;-87
2023/05/20 16:52:58;;;;;;;;;;;27.90;1.00;;;;;;5095767;28;19915;-88
2023/05/20 16:58:27;;;;;;;;;;;27.00;1.00;;;;;;5096889;28;19914;-87
2023/05/20 17:00:54;;;;;;;;;;;26.60;1.00;;;;;;5086561;28;19908;-87
2023/05/20 17:03:28;;;;;;;;;;;26.20;1.00;;;;;;5079470;28;19954;-88
2023/05/20 17:05:58;;;;;;;;;;;26.00;1.00;;;;;;5077134;28;19904;-88
2023/05/20 17:08:34;;;;;;;;;;;25.70;1.00;;;;;;5076044;28;19995;-89
2023/05/20 17:11:16;;;;;;;;;;;25.20;1.00;;;;;;5076921;28;19908;-87
2023/05/20 17:13:58;;;;;;;;;;;24.80;1.00;;;;;;5077551;28;20007;-89
2023/05/20 17:19:27;;;;;;;;;;;24.10;1.00;;;;;;5101803;28;19954;-87
2023/05/20 17:21:58;;;;;;;;;;;23.80;1.00;;;;;;5090053;28;19908;-88
2023/05/20 17:24:24;;;;;;;;;;;23.60;1.00;;;;;;5080992;28;19911;-88
2023/05/20 17:26:58;;;;;;;;;;;23.40;1.00;;;;;;5080044;28;19912;-88
2023/05/20 17:29:24;;;;;;;;;;;23.20;1.00;;;;;;5088642;28;19908;-88
2023/05/20 17:31:49;;;;;;;;;;;23.00;1.00;;;;;;5080362;28;19908;-88
2023/05/20 17:34:15;;;;;;;;;;;22.80;1.00;;;;;;5080291;28;19950;-87
2023/05/20 17:36:40;;;;;;;;;;;22.70;1.00;;;;;;5083897;28;19915;-89
2023/05/20 17:39:11;;;;;;;;;;;22.30;1.00;;;;;;5080006;28;19908;-89
2023/05/20 17:41:40;;;;;;;;;;;22.10;1.00;;;;;;5084680;28;19915;-88
2023/05/20 17:44:06;;;;;;;;;;;21.90;1.00;;;;;;5091004;28;19908;-89
2023/05/20 17:49:49;;;;;;;;;;;21.60;1.00;;;;;;5116956;28;19910;-88
2023/05/20 17:52:28;;;;;;;;;;;21.50;1.00;;;;;;5079950;28;20283;-87
2023/05/20 17:54:58;;;;;;;;;;;21.20;1.00;;;;;;5085531;28;19907;-87
2023/05/20 17:57:28;;;;;;;;;;;21.00;1.00;;;;;;5098147;28;19907;-88
2023/05/20 17:59:58;;;;;;;;;;;20.90;1.00;;;;;;5100307;28;19904;-88
2023/05/20 18:02:58;;;;;;;;;;;20.80;1.00;;;;;;5081355;28;19915;-89
2023/05/20 18:05:28;;;;;;;;;;;20.80;1.00;;;;;;5100690;28;19904;-87
2023/05/20 18:07:59;;;;;;;;;;;20.70;1.00;;;;;;5100125;28;19903;-88
2023/05/20 18:10:28;;;;;;;;;;;20.60;1.00;;;;;;5085227;28;19915;-89
2023/05/20 18:13:28;;;;;;;;;;;20.40;1.00;;;;;;5093401;28;20371;-89
2023/05/20 18:16:22;;;;;;;;;;;20.30;1.00;;;;;;5086088;28;19953;-88
2023/05/20 18:21:50;;;;;;;;;;;20.00;1.00;;;;;;5114993;28;19954;-88
2023/05/20 18:24:28;;;;;;;;;;;19.90;1.00;;;;;;5091399;28;19908;-88
2023/05/20 18:26:58;;;;;;;;;;;19.80;1.00;;;;;;5090016;28;19908;-88
2023/05/20 18:29:28;;;;;;;;;;;19.70;1.00;;;;;;5089518;28;19908;-83
2023/05/20 18:38:28;;;;;;;;;;;19.60;1.00;;;;;;5102350;28;19934;-84
2023/05/20 18:40:58;;;;;;;;;;;19.50;1.00;;;;;;5096737;28;19911;-85
2023/05/20 18:49:28;;;;;;;;;;;19.20;1.00;;;;;;5117557;28;19904;-90
2023/05/20 18:51:58;;;;;;;;;;;19.20;1.00;;;;;;5099092;28;19918;-84
2023/05/20 18:54:28;;;;;;;;;;;19.00;1.00;;;;;;5098941;28;19998;-86
2023/05/20 18:56:58;;;;;;;;;;;18.90;1.00;;;;;;5098980;28;19904;-85
2023/05/20 18:59:28;;;;;;;;;;;18.80;1.00;;;;;;5099013;28;19904;-86
2023/05/20 19:01:58;;;;;;;;;;;18.80;1.00;;;;;;5090211;28;19935;-86
2023/05/20 19:04:58;;;;;;;;;;;18.70;1.00;;;;;;5078260;28;19958;-84
2023/05/20 19:07:40;;;;;;;;;;;18.60;1.00;;;;;;5078817;28;19904;-85
2023/05/20 19:10:22;;;;;;;;;;;18.50;1.00;;;;;;5078306;28;19949;-86
2023/05/20 19:18:54;;;;;;;;;;;18.30;1.00;;;;;;5097609;28;19999;-84
2023/05/20 19:30:58;;;;;;;;;;;18.10;1.00;;;;;;5100409;28;19915;-86
2023/05/20 19:39:30;;;;;;;;;;;17.90;1.00;;;;;;5096763;28;19919;-90
2023/05/20 19:42:04;;;;;;;;;;;17.80;1.00;;;;;;5093690;28;19908;-90
2023/05/20 19:44:34;;;;;;;;;;;17.80;1.00;;;;;;5078971;28;19908;-90
2023/05/20 19:50:03;;;;;;;;;;;17.70;1.00;;;;;;5107741;28;20361;-91
2023/05/20 19:52:30;;;;;;;;;;;17.70;1.00;;;;;;5093002;28;20006;-91
2023/05/20 19:57:58;;;;;;;;;;;17.60;1.00;;;;;;5095449;28;19965;-89
2023/05/20 20:06:30;;;;;;;;;;;15.30;1.00;;;;;;5115537;28;19964;-88
2023/05/20 20:15:02;;;;;;;;;;;17.40;1.00;;;;;;5095172;28;19911;-90
2023/05/20 20:18:04;;;;;;;;;;;17.30;1.00;;;;;;5077333;28;19904;-91
2023/05/20 20:23:35;;;;;;;;;;;17.20;1.00;;;;;;5035548;28;19968;-87
2023/05/20 20:29:03;;;;;;;;;;;17.20;1.00;;;;;;5052228;28;19965;-88
2023/05/20 20:34:32;;;;;;;;;;;17.10;1.00;;;;;;5052064;28;19971;-88
2023/05/20 20:40:10;;;;;;;;;;;17.10;1.00;;;;;;5062215;28;19914;-77
2023/05/20 20:48:53;;;;;;;;;;;17.00;1.00;;;;;;5032155;28;19912;-86
2023/05/20 20:54:22;;;;;;;;;;;17.00;1.00;;;;;;5048113;28;20025;-81
2023/05/20 21:02:52;;;;;;;;;;;16.90;1.00;;;;;;5044026;28;19916;-82
2023/05/20 21:08:34;;;;;;;;;;;16.80;1.00;;;;;;5056058;28;19954;-76
2023/05/20 21:11:00;;;;;;;;;;;16.80;1.00;;;;;;5054055;28;20410;-74
2023/05/20 21:13:26;;;;;;;;;;;16.80;1.00;;;;;;5035767;28;19944;-74
2023/05/20 21:15:52;;;;;;;;;;;16.70;1.00;;;;;;5037105;28;19916;-74
2023/05/20 21:18:22;;;;;;;;;;;16.70;1.00;;;;;;5092692;28;19904;-74
2023/05/20 21:20:53;;;;;;;;;;;16.70;1.00;;;;;;5098109;28;19904;-74
2023/05/20 21:23:19;;;;;;;;;;;16.70;1.00;;;;;;5098205;28;20270;-74
2023/05/20 21:25:45;;;;;;;;;;;16.70;1.00;;;;;;5098885;28;20391;-74
2023/05/20 21:28:11;;;;;;;;;;;16.70;1.00;;;;;;5097981;28;19904;-74
2023/05/20 21:30:36;;;;;;;;;;;16.60;1.00;;;;;;5100494;28;19912;-74
2023/05/20 21:33:04;;;;;;;;;;;16.60;1.00;;;;;;5110976;28;19912;-75
2023/05/20 21:35:40;;;;;;;;;;;16.60;1.00;;;;;;5113852;28;19911;-74
2023/05/20 21:38:06;;;;;;;;;;;16.60;1.00;;;;;;5118350;28;19904;-74
2023/05/20 21:40:31;;;;;;;;;;;16.60;1.00;;;;;;5116393;28;19907;-74
2023/05/20 21:42:57;;;;;;;;;;;16.60;1.00;;;;;;5099717;28;19908;-75
2023/05/20 21:45:23;;;;;;;;;;;16.60;1.00;;;;;;5108380;28;19915;-74
2023/05/20 21:47:48;;;;;;;;;;;16.60;1.00;;;;;;5104317;28;19904;-74
2023/05/20 21:50:14;;;;;;;;;;;16.50;1.00;;;;;;5087821;28;19930;-74
2023/05/20 21:52:39;;;;;;;;;;;16.60;1.00;;;;;;5084365;28;20331;-74
2023/05/20 21:55:10;;;;;;;;;;;16.60;1.00;;;;;;5097947;28;19904;-74